Last 24 Hours

UH Manoa Atmospheric Sciences

15 Minute Data | Pacific/Honolulu
as of 10/1/22 10:09 AM HST
Station Date Time Temp (°F) RH (%) Dew Pt (°F) Wind Spd (mph) Wind Dir (°) Wind Gust (mph) Latest Rain (In) Solar Rad (W/m2) Heat Index (°F) Barometric Press (inHg) Daily Rain (In) Daily Min Temp (°F) Daily Max Temp (°F) Daily Max Wind (mph)
UH Manoa Atmospheric Sciences 10/1/22 1000 83.4 68 71.6 3.6 NNE | 31 8.4 0.00 503 88.5 29.99 0.00 77.3 84.3 11.8
UH Manoa Atmospheric Sciences 10/1/22 0945 82.5 69 71.5 5.0 NNE | 25 11.8 0.00 728 87.3 29.99 0.00 77.3 83.3 11.8
UH Manoa Atmospheric Sciences 10/1/22 0930 81.7 70 71.1 6.0 NNE | 28 10.1 0.00 547 85.9 30.00 0.00 77.3 83.0 10.1
UH Manoa Atmospheric Sciences 10/1/22 0915 81.9 70 71.1 4.6 NE | 43 10.0 0.00 266 86.2 30.00 0.00 77.3 83.0 10.1
UH Manoa Atmospheric Sciences 10/1/22 0900 81.9 70 71.3 4.0 NNE | 33 8.7 0.00 483 86.3 30.00 0.00 77.3 83.0 10.1
UH Manoa Atmospheric Sciences 10/1/22 0845 81.5 71 71.2 4.6 NE | 52 10.1 0.00 483 85.8 30.00 0.00 77.3 82.2 10.1
UH Manoa Atmospheric Sciences 10/1/22 0830 81.1 72 71.3 4.4 NE | 46 9.9 0.00 402 85.2 29.99 0.00 77.3 81.5 9.9
UH Manoa Atmospheric Sciences 10/1/22 0815 80.5 72 70.7 4.6 NE | 49 7.6 0.00 353 84.1 29.99 0.00 77.3 81.0 9.8
UH Manoa Atmospheric Sciences 10/1/22 0800 80.1 72 70.4 3.5 NE | 49 7.3 0.00 298 82.6 29.99 0.00 77.3 80.4 9.8
UH Manoa Atmospheric Sciences 10/1/22 0745 79.8 74 70.7 2.7 ENE | 58 6.5 0.00 239 80.3 29.99 0.00 77.3 80.1 9.8
UH Manoa Atmospheric Sciences 10/1/22 0730 79.0 76 70.6 1.1 NE | 56 3.7 0.00 186 79.0 29.98 0.00 77.3 79.6 9.8
UH Manoa Atmospheric Sciences 10/1/22 0715 78.2 76 70.2 1.5 ENE | 77 5.2 0.00 84 78.2 29.98 0.00 77.3 79.3 9.8
UH Manoa Atmospheric Sciences 10/1/22 0700 77.6 76 69.6 0.6 S | 179 2.5 0.00 44 77.6 29.98 0.00 77.3 79.3 9.8
UH Manoa Atmospheric Sciences 10/1/22 0645 77.8 76 69.7 0.9 NNW | 331 4.0 0.00 9 77.8 29.98 0.00 77.6 79.3 9.8
UH Manoa Atmospheric Sciences 10/1/22 0630 77.9 76 69.8 1.9 ENE | 71 7.5 0.00 2 77.9 29.98 0.00 77.7 79.3 9.8
UH Manoa Atmospheric Sciences 10/1/22 0615 78.0 76 69.8 2.0 ENE | 68 5.4 0.00 0 78.0 29.97 0.00 77.7 79.3 9.8
UH Manoa Atmospheric Sciences 10/1/22 0600 78.0 76 70.0 3.1 E | 80 6.9 0.00 0 78.0 29.97 0.00 77.7 79.3 9.8
UH Manoa Atmospheric Sciences 10/1/22 0545 78.0 77 70.2 3.0 ENE | 74 6.3 0.00 0 78.0 29.97 0.00 77.7 79.3 9.8
UH Manoa Atmospheric Sciences 10/1/22 0530 78.0 77 70.1 4.0 ENE | 59 9.8 0.00 0 78.0 29.96 0.00 77.7 79.3 9.8
UH Manoa Atmospheric Sciences 10/1/22 0515 78.3 76 70.1 3.9 NE | 51 7.5 0.00 0 78.3 29.96 0.00 78.0 79.3 9.8
UH Manoa Atmospheric Sciences 10/1/22 0500 78.3 75 69.9 4.2 ENE | 68 9.8 0.00 0 78.3 29.97 0.00 78.1 79.3 9.8
UH Manoa Atmospheric Sciences 10/1/22 0445 78.4 75 69.8 5.5 NE | 44 9.2 0.00 0 78.4 29.97 0.00 78.1 79.3 9.2
UH Manoa Atmospheric Sciences 10/1/22 0430 78.4 74 69.6 3.9 NE | 47 8.2 0.00 0 78.4 29.97 0.00 78.1 79.3 9.2
UH Manoa Atmospheric Sciences 10/1/22 0415 78.4 74 69.5 4.6 NE | 55 7.6 0.00 0 78.4 29.97 0.00 78.1 79.3 9.2
UH Manoa Atmospheric Sciences 10/1/22 0400 78.8 73 69.5 5.3 NE | 40 9.2 0.00 0 78.8 29.97 0.00 78.1 79.3 9.2
UH Manoa Atmospheric Sciences 10/1/22 0345 78.5 73 69.2 3.0 ENE | 59 8.6 0.00 0 78.5 29.97 0.00 78.1 79.3 8.6
UH Manoa Atmospheric Sciences 10/1/22 0330 78.5 73 69.2 2.4 ENE | 70 8.4 0.00 0 78.5 29.98 0.00 78.1 79.3 8.4
UH Manoa Atmospheric Sciences 10/1/22 0315 78.4 73 69.1 2.6 ENE | 65 5.7 0.00 0 78.4 29.98 0.00 78.1 79.3 8.0
UH Manoa Atmospheric Sciences 10/1/22 0300 78.5 73 69.2 3.3 ENE | 65 6.0 0.00 0 78.5 29.98 0.00 78.1 79.3 8.0
UH Manoa Atmospheric Sciences 10/1/22 0245 78.4 73 69.2 3.2 ENE | 60 6.6 0.00 0 78.4 29.99 0.00 78.1 79.3 8.0
UH Manoa Atmospheric Sciences 10/1/22 0230 78.4 74 69.4 2.7 ENE | 57 5.2 0.00 0 78.4 29.99 0.00 78.2 79.3 8.0
UH Manoa Atmospheric Sciences 10/1/22 0215 78.6 73 69.3 0.9 E | 84 2.5 0.00 0 78.6 30.00 0.00 78.4 79.3 8.0
UH Manoa Atmospheric Sciences 10/1/22 0200 78.8 73 69.5 2.4 ENE | 63 6.9 0.00 0 78.8 30.00 0.00 78.4 79.3 8.0
UH Manoa Atmospheric Sciences 10/1/22 0145 78.8 73 69.6 2.9 NE | 54 5.3 0.00 0 78.8 30.00 0.00 78.4 79.3 8.0
UH Manoa Atmospheric Sciences 10/1/22 0130 78.8 73 69.5 1.9 ENE | 71 4.6 0.00 0 78.8 30.01 0.00 78.6 79.3 8.0
UH Manoa Atmospheric Sciences 10/1/22 0115 78.9 73 69.5 2.2 ENE | 67 4.4 0.00 0 78.9 30.01 0.00 78.7 79.3 8.0
UH Manoa Atmospheric Sciences 10/1/22 0100 78.9 73 69.5 1.6 ENE | 70 4.0 0.00 0 78.9 30.01 0.00 78.7 79.3 8.0
UH Manoa Atmospheric Sciences 10/1/22 0045 79.0 73 69.6 2.8 ENE | 67 4.9 0.00 0 79.0 30.01 0.00 78.8 79.3 8.0
UH Manoa Atmospheric Sciences 10/1/22 0030 78.9 73 69.5 4.0 ENE | 69 7.4 0.00 0 78.9 30.01 0.00 78.8 79.3 8.0
UH Manoa Atmospheric Sciences 10/1/22 0015 79.0 73 69.4 3.9 ENE | 65 8.0 0.00 0 79.0 30.02 0.00 78.8 79.3 8.0
UH Manoa Atmospheric Sciences 10/1/22 0000 79.4 71 69.3 4.3 ENE | 62 7.4 0.00 0 79.4 30.01 0.00 74.5 87.5 22.0
UH Manoa Atmospheric Sciences 9/30/22 2345 79.2 72 69.4 5.8 NE | 56 10.4 0.00 0 79.2 30.02 0.00 74.5 87.5 22.0
UH Manoa Atmospheric Sciences 9/30/22 2330 79.2 72 69.5 4.8 ENE | 60 9.1 0.00 0 79.2 30.02 0.00 74.5 87.5 22.0
UH Manoa Atmospheric Sciences 9/30/22 2315 79.4 72 69.4 3.7 ENE | 61 7.0 0.00 0 79.4 30.02 0.00 74.5 87.5 22.0
UH Manoa Atmospheric Sciences 9/30/22 2300 79.7 71 69.5 4.8 NE | 56 10.5 0.00 0 79.8 30.02 0.00 74.5 87.5 22.0
UH Manoa Atmospheric Sciences 9/30/22 2245 79.6 71 69.6 4.0 ENE | 59 11.4 0.00 0 79.6 30.03 0.00 74.5 87.5 22.0
UH Manoa Atmospheric Sciences 9/30/22 2230 79.7 71 69.5 4.8 ENE | 62 9.2 0.00 0 79.7 30.03 0.00 74.5 87.5 22.0
UH Manoa Atmospheric Sciences 9/30/22 2215 80.0 71 69.6 5.9 ENE | 58 10.9 0.00 0 81.4 30.03 0.00 74.5 87.5 22.0
UH Manoa Atmospheric Sciences 9/30/22 2200 79.9 71 69.7 6.3 ENE | 63 12.6 0.00 0 80.9 30.03 0.00 74.5 87.5 22.0
UH Manoa Atmospheric Sciences 9/30/22 2145 80.0 71 69.8 5.4 NE | 54 13.0 0.00 0 81.4 30.03 0.00 74.5 87.5 22.0
UH Manoa Atmospheric Sciences 9/30/22 2130 80.0 71 69.8 4.4 ENE | 66 10.6 0.00 0 81.8 30.03 0.00 74.5 87.5 22.0
UH Manoa Atmospheric Sciences 9/30/22 2115 79.9 71 69.8 5.5 ENE | 59 10.2 0.00 0 81.4 30.03 0.00 74.5 87.5 22.0
UH Manoa Atmospheric Sciences 9/30/22 2100 80.1 71 69.8 4.6 ENE | 68 9.5 0.00 0 82.6 30.03 0.00 74.5 87.5 22.0
UH Manoa Atmospheric Sciences 9/30/22 2045 80.1 71 70.0 5.9 ENE | 60 11.2 0.00 0 82.8 30.02 0.00 74.5 87.5 22.0
UH Manoa Atmospheric Sciences 9/30/22 2030 80.1 72 70.1 5.7 ENE | 67 12.0 0.00 0 82.5 30.01 0.00 74.5 87.5 22.0
UH Manoa Atmospheric Sciences 9/30/22 2015 79.8 72 70.0 5.0 ENE | 74 11.9 0.00 0 80.3 30.01 0.00 74.5 87.5 22.0
UH Manoa Atmospheric Sciences 9/30/22 2000 80.0 71 69.9 3.9 ENE | 70 9.7 0.00 0 82.6 30.01 0.00 74.5 87.5 22.0
UH Manoa Atmospheric Sciences 9/30/22 1945 80.1 71 70.0 6.1 ENE | 70 11.8 0.00 0 83.3 30.01 0.00 74.5 87.5 22.0
UH Manoa Atmospheric Sciences 9/30/22 1930 80.1 71 69.9 4.4 ENE | 69 14.5 0.00 0 83.3 30.00 0.00 74.5 87.5 22.0
UH Manoa Atmospheric Sciences 9/30/22 1915 80.2 71 69.8 5.2 ENE | 73 12.9 0.00 0 83.3 30.00 0.00 74.5 87.5 22.0
UH Manoa Atmospheric Sciences 9/30/22 1900 80.4 70 69.8 5.9 ENE | 60 12.9 0.00 0 83.6 29.99 0.00 74.5 87.5 22.0
UH Manoa Atmospheric Sciences 9/30/22 1845 80.7 69 69.8 4.3 ENE | 71 9.5 0.00 0 84.0 29.99 0.00 74.5 87.5 22.0
UH Manoa Atmospheric Sciences 9/30/22 1830 80.8 69 69.9 5.2 ENE | 61 14.6 0.00 0 84.3 29.99 0.00 74.5 87.5 22.0
UH Manoa Atmospheric Sciences 9/30/22 1815 81.1 69 69.9 6.2 NE | 56 14.5 0.00 27 84.6 29.99 0.00 74.5 87.5 22.0
UH Manoa Atmospheric Sciences 9/30/22 1800 81.1 69 69.8 8.8 NE | 40 20.9 0.00 79 84.6 29.98 0.00 74.5 87.5 22.0
UH Manoa Atmospheric Sciences 9/30/22 1745 81.6 68 69.9 9.9 NE | 48 18.4 0.00 129 85.2 29.98 0.00 74.5 87.5 22.0
UH Manoa Atmospheric Sciences 9/30/22 1730 81.8 67 69.8 11.0 NE | 42 20.2 0.00 138 85.5 29.98 0.00 74.5 87.5 22.0
UH Manoa Atmospheric Sciences 9/30/22 1715 82.4 65 69.5 10.4 NE | 42 19.8 0.00 236 86.0 29.97 0.00 74.5 87.5 22.0
UH Manoa Atmospheric Sciences 9/30/22 1700 82.5 66 69.9 9.4 NE | 40 19.2 0.00 293 86.4 29.98 0.00 74.5 87.5 22.0
UH Manoa Atmospheric Sciences 9/30/22 1645 82.6 65 69.6 10.9 NE | 38 20.4 0.00 354 86.3 29.98 0.00 74.5 87.5 22.0
UH Manoa Atmospheric Sciences 9/30/22 1630 82.8 65 70.1 9.6 NE | 38 19.7 0.00 412 86.9 29.98 0.00 74.5 87.5 22.0
UH Manoa Atmospheric Sciences 9/30/22 1615 83.3 64 70.0 10.3 NE | 47 21.4 0.00 464 87.4 29.97 0.00 74.5 87.5 22.0
UH Manoa Atmospheric Sciences 9/30/22 1600 83.6 64 69.9 11.0 NE | 43 18.8 0.00 518 87.7 29.97 0.00 74.5 87.5 22.0
UH Manoa Atmospheric Sciences 9/30/22 1545 84.4 63 70.2 8.8 NE | 40 21.5 0.00 569 88.9 29.97 0.00 74.5 87.5 22.0
UH Manoa Atmospheric Sciences 9/30/22 1530 84.9 62 70.5 6.3 NE | 39 17.1 0.00 620 89.7 29.97 0.00 74.5 87.5 22.0
UH Manoa Atmospheric Sciences 9/30/22 1515 84.5 62 70.3 9.1 NE | 43 19.8 0.00 588 89.1 29.97 0.00 74.5 87.5 22.0
UH Manoa Atmospheric Sciences 9/30/22 1500 84.8 62 70.6 9.6 NE | 36 20.0 0.00 694 89.7 29.97 0.00 74.5 87.5 22.0
UH Manoa Atmospheric Sciences 9/30/22 1445 84.5 63 70.4 11.2 NE | 43 22.0 0.00 735 89.2 29.97 0.00 74.5 87.5 22.0
UH Manoa Atmospheric Sciences 9/30/22 1430 85.2 62 70.7 10.3 NE | 40 19.1 0.00 794 90.2 29.98 0.00 74.5 87.5 20.8
UH Manoa Atmospheric Sciences 9/30/22 1415 85.0 62 70.5 10.6 NE | 42 18.3 0.00 835 89.9 29.99 0.00 74.5 87.5 20.8
UH Manoa Atmospheric Sciences 9/30/22 1400 85.2 61 70.3 10.1 NE | 40 18.5 0.00 863 89.9 29.99 0.00 74.5 87.5 20.8
UH Manoa Atmospheric Sciences 9/30/22 1345 85.3 61 70.2 10.6 NE | 39 18.7 0.00 897 90.0 30.00 0.00 74.5 87.5 20.8
UH Manoa Atmospheric Sciences 9/30/22 1330 84.9 61 70.0 11.4 NE | 37 20.8 0.00 918 89.4 30.00 0.00 74.5 87.5 20.8
UH Manoa Atmospheric Sciences 9/30/22 1315 86.2 58 69.7 9.3 NNE | 33 17.2 0.00 892 90.7 30.01 0.00 74.5 87.5 18.5
UH Manoa Atmospheric Sciences 9/30/22 1300 86.3 58 69.8 7.8 NE | 34 15.8 0.00 949 90.9 30.02 0.00 74.5 87.5 18.5
UH Manoa Atmospheric Sciences 9/30/22 1245 86.6 57 69.8 7.9 NE | 44 18.3 0.00 954 91.2 30.02 0.00 74.5 87.5 18.5
UH Manoa Atmospheric Sciences 9/30/22 1230 86.4 58 69.8 7.6 NE | 46 16.0 0.00 947 91.0 30.02 0.00 74.5 87.3 18.5
UH Manoa Atmospheric Sciences 9/30/22 1215 86.2 57 69.4 7.7 NE | 42 14.2 0.00 939 90.6 30.03 0.00 74.5 87.3 18.5
UH Manoa Atmospheric Sciences 9/30/22 1200 85.7 59 69.6 8.9 NE | 48 17.2 0.00 925 90.1 30.04 0.00 74.5 87.3 18.5
UH Manoa Atmospheric Sciences 9/30/22 1145 85.3 59 69.6 10.2 NE | 41 18.5 0.00 911 89.7 30.04 0.00 74.5 87.3 18.5
UH Manoa Atmospheric Sciences 9/30/22 1130 85.5 59 69.5 9.6 NE | 37 17.4 0.00 891 89.8 30.05 0.00 74.5 87.3 17.4
UH Manoa Atmospheric Sciences 9/30/22 1115 86.0 58 69.6 6.5 NE | 38 14.7 0.00 866 90.5 30.06 0.00 74.5 87.3 16.4
UH Manoa Atmospheric Sciences 9/30/22 1100 86.3 58 69.7 5.4 NE | 50 11.1 0.00 844 90.8 30.06 0.00 74.5 87.2 16.4
UH Manoa Atmospheric Sciences 9/30/22 1045 85.3 59 69.6 7.0 NE | 56 13.9 0.00 832 89.7 30.07 0.00 74.5 86.3 16.4
UH Manoa Atmospheric Sciences 9/30/22 1030 84.6 60 69.3 8.6 NE | 35 14.0 0.00 758 88.6 30.07 0.00 74.5 85.5 16.4
UH Manoa Atmospheric Sciences 9/30/22 1015 84.8 60 69.4 7.8 NE | 40 16.4 0.00 622 88.9 30.07 0.00 74.5 85.5 16.4
UH Manoa Atmospheric Sciences 9/30/22 1000 84.6 61 69.7 7.0 NE | 47 14.0 0.00 714 88.9 30.07 0.00 74.5 85.3 14.0
Max     86.6 77 71.6 11.4 - 22.0 0.00 954 91.2 30.07 0.00 78.8 87.5 22.0
Avg     81.2 69 69.9 5.7 - 11.8 0.00 277 83.5 30.00 - - - -
Min     77.6 57 69.1 0.6 - 2.5 0.00 0 77.6 29.96 0.00 74.5 79.3 8.0